createdAt,value
2023-01-09T00:01:28.711Z,91.44
2023-01-09T00:03:59.121Z,91.62
2023-01-09T00:06:26.699Z,91.95
2023-01-09T00:08:54.155Z,91.69
2023-01-09T00:11:24.273Z,91.13
2023-01-09T00:13:51.379Z,91.37
2023-01-09T00:16:18.721Z,91.74
2023-01-09T00:18:46.089Z,92.45
2023-01-09T00:21:20.166Z,92.06
2023-01-09T00:23:47.658Z,91.96
2023-01-09T00:26:24.143Z,91.87
2023-01-09T00:32:49.614Z,91.86
2023-01-09T00:38:24.797Z,91.89
2023-01-09T00:41:14.676Z,92.09
2023-01-09T00:47:05.109Z,91.95
2023-01-09T00:49:35.016Z,92.55
2023-01-09T00:52:22.221Z,91.73
2023-01-09T00:54:56.990Z,91.08
2023-01-09T00:57:27.327Z,91.67
2023-01-09T01:00:00.802Z,91.23
2023-01-09T01:06:13.550Z,90.82
2023-01-09T01:08:52.703Z,90.80
2023-01-09T01:11:35.115Z,91.03
2023-01-09T01:14:02.856Z,91.29
2023-01-09T01:16:33.093Z,91.38
2023-01-09T01:19:37.305Z,91.29
2023-01-09T01:22:27.475Z,91.05
2023-01-09T01:24:55.155Z,90.95
2023-01-09T01:27:22.512Z,90.75
2023-01-09T01:30:10.769Z,90.82
2023-01-09T01:35:22.377Z,90.32
2023-01-09T01:37:50.345Z,90.99
2023-01-09T01:40:52.205Z,90.62
2023-01-09T01:43:19.877Z,91.29
2023-01-09T01:45:50.029Z,91.56
2023-01-09T01:48:37.308Z,90.82
2023-01-09T01:51:16.944Z,90.37
2023-01-09T01:53:56.816Z,90.22
2023-01-09T01:56:28.254Z,90.49
2023-01-09T01:59:47.108Z,90.82
2023-01-09T02:02:14.311Z,90.75
2023-01-09T02:08:00.463Z,90.61
2023-01-09T02:10:28.163Z,90.38
2023-01-09T02:13:05.456Z,90.72
2023-01-09T02:15:48.889Z,90.49
2023-01-09T02:18:24.943Z,90.27
2023-01-09T02:20:56.492Z,90.74
2023-01-09T02:23:33.181Z,90.49
2023-01-09T02:26:10.874Z,90.48
2023-01-09T02:28:51.749Z,90.20
2023-01-09T02:31:25.396Z,90.48
2023-01-09T02:34:00.496Z,90.33
2023-01-09T02:39:40.163Z,89.84
2023-01-09T02:42:17.357Z,89.30
2023-01-09T02:44:47.672Z,89.54
2023-01-09T02:47:15.963Z,89.55
2023-01-09T02:49:53.659Z,89.34
2023-01-09T02:55:19.093Z,89.62
2023-01-09T02:57:55.967Z,89.14
2023-01-09T03:00:32.557Z,89.75
2023-01-09T03:03:08.261Z,89.34
2023-01-09T03:05:44.982Z,89.11
2023-01-09T03:08:29.635Z,88.55
2023-01-09T03:11:00.981Z,88.90
2023-01-09T03:13:35.001Z,89.41
2023-01-09T03:16:04.768Z,89.72
2023-01-09T03:18:38.927Z,89.91
2023-01-09T03:21:07.622Z,89.80
2023-01-09T03:23:45.217Z,89.49
2023-01-09T03:26:12.347Z,88.91
2023-01-09T03:28:42.499Z,89.26
2023-01-09T03:31:18.939Z,89.68
2023-01-09T03:33:46.013Z,89.00
2023-01-09T03:39:49.835Z,89.05
2023-01-09T03:42:35.184Z,88.73
2023-01-09T03:45:02.322Z,89.10
2023-01-09T03:47:29.840Z,89.60
2023-01-09T03:49:57.088Z,88.69
2023-01-09T03:52:24.349Z,88.73
2023-01-09T03:54:51.401Z,89.33
2023-01-09T03:57:18.748Z,89.15
2023-01-09T03:59:46.363Z,89.77
2023-01-09T04:02:16.708Z,89.22
2023-01-09T04:04:47.169Z,88.97
2023-01-09T04:07:17.732Z,89.38
2023-01-09T04:09:45.263Z,89.26
2023-01-09T04:12:15.045Z,88.98
2023-01-09T04:14:42.373Z,89.31
2023-01-09T04:17:18.600Z,89.47
2023-01-09T04:19:51.598Z,90.21
2023-01-09T04:22:23.405Z,90.76
2023-01-09T04:24:52.042Z,90.69
2023-01-09T04:27:20.833Z,91.21
2023-01-09T04:29:48.185Z,91.11
2023-01-09T04:32:15.558Z,91.21
2023-01-09T04:34:49.673Z,91.56
2023-01-09T04:37:20.493Z,91.25
2023-01-09T04:39:50.415Z,91.40
2023-01-09T04:42:17.700Z,91.26
2023-01-09T04:44:47.280Z,91.74
2023-01-09T04:47:17.553Z,91.70
2023-01-09T04:50:07.810Z,91.66
2023-01-09T04:55:28.931Z,90.93
2023-01-09T04:57:56.265Z,90.95
2023-01-09T05:00:26.291Z,90.90
2023-01-09T05:03:05.323Z,90.59
2023-01-09T05:05:41.936Z,90.20
2023-01-09T05:08:09.298Z,90.28
2023-01-09T05:10:36.607Z,90.62
2023-01-09T05:13:03.775Z,90.93
2023-01-09T05:15:51.309Z,91.13
2023-01-09T05:18:18.562Z,91.02
2023-01-09T05:21:06.259Z,90.74
2023-01-09T05:23:33.346Z,91.19
2023-01-09T05:26:15.860Z,90.90
2023-01-09T05:28:43.010Z,90.83
2023-01-09T05:31:10.043Z,90.78
2023-01-09T05:33:37.216Z,91.17
2023-01-09T05:36:04.464Z,91.63
2023-01-09T05:38:35.015Z,91.09
2023-01-09T05:41:05.118Z,91.35
2023-01-09T05:43:34.831Z,91.11
2023-01-09T05:46:04.589Z,91.25
2023-01-09T05:48:37.015Z,91.54
2023-01-09T05:51:04.678Z,91.46
2023-01-09T05:53:39.429Z,91.55
2023-01-09T05:56:06.575Z,91.39
2023-01-09T05:58:33.729Z,91.75
2023-01-09T06:01:31.958Z,92.50
2023-01-09T06:03:59.160Z,91.68
2023-01-09T06:06:26.473Z,91.63
2023-01-09T06:09:01.958Z,91.50
2023-01-09T06:11:29.225Z,91.54
2023-01-09T06:13:56.464Z,92.05
2023-01-09T06:16:24.089Z,92.37
2023-01-09T06:18:51.670Z,92.03
2023-01-09T06:21:21.307Z,92.29
2023-01-09T06:23:48.758Z,91.79
2023-01-09T06:26:15.789Z,91.43
2023-01-09T06:28:45.426Z,92.19
2023-01-09T06:31:13.656Z,92.78
2023-01-09T06:33:41.174Z,93.09
2023-01-09T06:36:09.034Z,92.96
2023-01-09T06:38:36.381Z,92.67
2023-01-09T06:41:03.540Z,92.77
2023-01-09T06:43:30.685Z,92.98
2023-01-09T06:46:01.143Z,92.81
2023-01-09T06:48:28.413Z,92.59
2023-01-09T06:50:55.807Z,92.56
2023-01-09T06:53:22.894Z,92.72
2023-01-09T06:55:54.001Z,92.84
2023-01-09T06:58:29.385Z,92.08
2023-01-09T07:01:09.627Z,91.79
2023-01-09T07:03:39.723Z,91.64
2023-01-09T07:06:07.984Z,91.23
2023-01-09T07:11:16.679Z,91.25
2023-01-09T07:13:46.295Z,90.49
2023-01-09T07:16:19.527Z,89.64
2023-01-09T07:18:46.633Z,89.47
2023-01-09T07:21:13.682Z,89.22
2023-01-09T07:23:40.939Z,89.87
2023-01-09T07:26:37.520Z,89.91
2023-01-09T07:29:04.434Z,89.72
2023-01-09T07:31:31.831Z,89.58
2023-01-09T07:34:01.593Z,90.16
2023-01-09T07:36:28.848Z,90.53
2023-01-09T07:38:55.900Z,90.57
2023-01-09T07:41:23.042Z,90.88
2023-01-09T07:43:50.107Z,89.85
2023-01-09T07:46:17.515Z,89.83
2023-01-09T07:48:44.523Z,89.81
2023-01-09T07:51:11.565Z,90.08
2023-01-09T07:53:38.400Z,89.79
2023-01-09T07:56:08.020Z,89.63
2023-01-09T07:58:35.534Z,89.99
2023-01-09T08:01:25.932Z,89.93
2023-01-09T08:03:57.024Z,89.72
2023-01-09T08:06:44.464Z,89.70
2023-01-09T08:09:11.724Z,89.02
2023-01-09T08:11:42.139Z,88.93
2023-01-09T08:14:12.344Z,89.16
2023-01-09T08:16:40.842Z,89.14
2023-01-09T08:19:08.075Z,88.57
2023-01-09T08:21:41.566Z,89.04
2023-01-09T08:24:09.894Z,89.32
2023-01-09T08:26:45.902Z,89.00
2023-01-09T08:29:13.913Z,88.92
2023-01-09T08:31:50.206Z,88.29
2023-01-09T08:34:29.179Z,88.88
2023-01-09T08:36:56.674Z,88.89
2023-01-09T08:39:28.231Z,88.38
2023-01-09T08:42:16.029Z,88.83
2023-01-09T08:44:52.631Z,88.61
2023-01-09T08:47:21.729Z,89.44
2023-01-09T08:49:50.395Z,88.93
2023-01-09T08:52:17.711Z,88.00
2023-01-09T08:54:49.250Z,88.00
2023-01-09T08:57:16.691Z,88.16
2023-01-09T08:59:46.700Z,87.62
2023-01-09T09:02:15.089Z,88.13
2023-01-09T09:04:43.159Z,87.55
2023-01-09T09:07:10.379Z,87.33
2023-01-09T09:09:37.885Z,87.17
2023-01-09T09:12:06.891Z,86.68
2023-01-09T09:14:43.757Z,87.41
2023-01-09T09:17:11.102Z,91.89
2023-01-09T09:19:40.117Z,91.35
2023-01-09T09:22:10.124Z,88.17
2023-01-09T09:24:37.389Z,86.75
2023-01-09T09:27:08.080Z,86.18
2023-01-09T09:29:35.796Z,85.74
2023-01-09T09:32:03.352Z,86.01
2023-01-09T09:34:30.707Z,86.33
2023-01-09T09:37:02.757Z,85.88
2023-01-09T09:39:30.231Z,86.03
2023-01-09T09:42:00.884Z,86.46
2023-01-09T09:44:34.467Z,84.86
2023-01-09T09:47:07.160Z,84.99
2023-01-09T09:49:50.383Z,85.15
2023-01-09T09:52:23.507Z,84.79
2023-01-09T09:54:52.491Z,84.24
2023-01-09T09:57:24.277Z,84.60
2023-01-09T09:59:53.125Z,84.58
2023-01-09T10:02:25.367Z,83.82
2023-01-09T10:05:00.323Z,82.75
2023-01-09T10:07:33.844Z,82.03
2023-01-09T10:10:05.797Z,83.12
2023-01-09T10:12:36.518Z,82.46
2023-01-09T10:15:08.164Z,82.18
2023-01-09T10:17:38.543Z,82.36
2023-01-09T10:20:10.866Z,81.91
2023-01-09T10:22:41.746Z,82.02
2023-01-09T10:25:10.028Z,82.45
2023-01-09T10:27:40.621Z,82.25
2023-01-09T10:30:25.961Z,82.43
2023-01-09T10:36:05.072Z,81.57
2023-01-09T10:38:41.036Z,81.23
2023-01-09T10:41:11.257Z,81.58
2023-01-09T10:43:41.701Z,82.33
2023-01-09T10:46:20.864Z,81.60
2023-01-09T10:49:13.346Z,81.32
2023-01-09T10:51:48.622Z,81.37
2023-01-09T10:57:24.393Z,81.71
2023-01-09T10:59:52.876Z,81.30
2023-01-09T11:02:23.324Z,81.56
2023-01-09T11:05:04.883Z,82.19
2023-01-09T11:07:36.864Z,80.85
2023-01-09T11:10:08.152Z,81.14
2023-01-09T11:12:42.711Z,81.96
2023-01-09T11:17:54.244Z,81.00
2023-01-09T11:20:21.710Z,79.80
2023-01-09T11:22:53.665Z,80.16
2023-01-09T11:25:58.408Z,80.26
2023-01-09T11:28:17.757Z,79.83
2023-01-09T11:30:48.320Z,79.82
2023-01-09T11:33:16.675Z,80.52
2023-01-09T11:35:47.112Z,80.76
2023-01-09T11:38:20.119Z,79.51
2023-01-09T11:41:01.594Z,79.42
2023-01-09T11:43:34.895Z,78.70
2023-01-09T11:46:06.971Z,78.81
2023-01-09T11:48:36.159Z,78.13
2023-01-09T11:51:05.586Z,78.21
2023-01-09T11:53:37.726Z,77.81
2023-01-09T11:56:05.780Z,77.89
2023-01-09T11:58:53.124Z,77.36
2023-01-09T12:01:34.677Z,78.16
2023-01-09T12:04:30.026Z,78.85
2023-01-09T12:07:03.923Z,76.89
2023-01-09T12:10:03.868Z,77.13
2023-01-09T12:12:34.166Z,75.52
2023-01-09T12:15:06.559Z,75.23
2023-01-09T12:17:46.917Z,75.03
2023-01-09T12:20:23.813Z,74.21
2023-01-09T12:22:51.761Z,74.17
2023-01-09T12:25:29.758Z,72.75
2023-01-09T12:28:00.192Z,73.29
2023-01-09T12:30:32.172Z,73.55
2023-01-09T12:42:18.152Z,72.59
2023-01-09T12:43:50.537Z,71.67
2023-01-09T12:47:04.386Z,70.78
2023-01-09T12:49:50.544Z,70.72
2023-01-09T12:52:25.289Z,70.10
2023-01-09T12:55:49.263Z,70.36
2023-01-09T12:59:01.088Z,68.76
2023-01-09T13:02:15.805Z,68.70
2023-01-09T13:08:24.751Z,66.82
2023-01-09T13:09:26.644Z,68.47
2023-01-09T13:11:14.855Z,66.68
2023-01-09T13:14:02.123Z,67.79
2023-01-09T13:16:32.769Z,68.17
2023-01-09T13:19:31.814Z,67.78
2023-01-09T13:22:25.935Z,68.04
2023-01-09T13:25:12.548Z,66.94
2023-01-09T13:28:12.059Z,66.95
2023-01-09T13:30:58.624Z,66.52
2023-01-09T13:33:34.700Z,66.69
2023-01-09T13:36:08.723Z,67.13
2023-01-09T13:38:39.263Z,67.28
2023-01-09T13:41:45.670Z,65.73
2023-01-09T13:44:22.313Z,67.01
2023-01-09T13:47:09.542Z,65.40
2023-01-09T13:50:11.989Z,64.82
2023-01-09T13:53:11.468Z,64.08
2023-01-09T13:55:38.973Z,64.42
2023-01-09T14:01:09.840Z,63.71
2023-01-09T14:03:41.494Z,63.86
2023-01-09T14:06:32.730Z,63.39
2023-01-09T14:09:30.149Z,63.62
2023-01-09T14:12:04.092Z,63.60
2023-01-09T14:14:33.909Z,63.12
2023-01-09T14:17:26.919Z,61.59
2023-01-09T14:20:05.784Z,61.72
2023-01-09T14:23:05.231Z,63.10
2023-01-09T14:25:33.868Z,63.61
2023-01-09T14:28:13.124Z,62.49
2023-01-09T14:34:31.129Z,62.87
2023-01-09T14:37:01.978Z,61.91
2023-01-09T14:39:36.149Z,62.02
2023-01-09T14:42:13.639Z,61.92
2023-01-09T14:44:44.162Z,60.62
2023-01-09T14:47:29.276Z,59.75
2023-01-09T14:53:10.692Z,60.21
2023-01-09T14:55:59.132Z,61.33
2023-01-09T14:58:28.302Z,60.45
2023-01-09T15:01:18.013Z,61.72
2023-01-09T15:06:48.348Z,62.64
2023-01-09T15:12:34.763Z,64.67
2023-01-09T15:15:33.983Z,65.30
2023-01-09T15:18:05.562Z,67.24
2023-01-09T15:21:07.399Z,66.63
2023-01-09T15:23:43.763Z,65.58
2023-01-09T15:26:32.505Z,67.05
2023-01-09T15:29:16.169Z,67.14
2023-01-09T15:31:52.878Z,68.37
2023-01-09T15:34:23.869Z,67.20
2023-01-09T15:37:02.528Z,68.37
2023-01-09T15:40:10.412Z,67.58
2023-01-09T15:42:58.953Z,68.54
2023-01-09T15:45:43.847Z,68.05
2023-01-09T15:48:24.786Z,68.68
2023-01-09T15:51:12.129Z,69.26
2023-01-09T15:53:41.445Z,68.80
2023-01-09T15:56:15.562Z,70.31
2023-01-09T15:59:36.067Z,69.59
2023-01-09T16:05:18.084Z,69.48
2023-01-09T16:08:01.763Z,69.88
2023-01-09T16:10:39.873Z,69.45
2023-01-09T16:13:07.178Z,69.06
2023-01-09T16:15:37.629Z,70.16
2023-01-09T16:18:25.769Z,69.83
2023-01-09T16:21:04.165Z,69.02
2023-01-09T16:23:31.631Z,68.39
2023-01-09T16:26:09.642Z,68.83
2023-01-09T16:28:41.515Z,68.92
2023-01-09T16:31:16.538Z,68.78
2023-01-09T16:34:13.167Z,68.89
2023-01-09T16:36:40.786Z,69.59
2023-01-09T16:39:14.468Z,69.44
2023-01-09T16:41:56.752Z,68.29
2023-01-09T16:44:24.383Z,67.77
2023-01-09T16:46:51.881Z,68.14
2023-01-09T16:49:21.084Z,68.16
2023-01-09T16:51:48.860Z,68.12
2023-01-09T16:54:16.833Z,69.49
2023-01-09T16:56:45.922Z,69.51
2023-01-09T16:59:14.909Z,69.49
2023-01-09T17:01:45.543Z,69.50
2023-01-09T17:04:13.583Z,68.87
2023-01-09T17:06:41.793Z,68.45
2023-01-09T17:09:12.843Z,68.63
2023-01-09T17:11:41.985Z,70.33
2023-01-09T17:14:11.202Z,69.96
2023-01-09T17:16:38.665Z,69.55
2023-01-09T17:19:06.167Z,69.63
2023-01-09T17:21:33.644Z,69.94
2023-01-09T17:24:44.907Z,70.00
2023-01-09T17:27:21.679Z,69.73
2023-01-09T17:29:56.985Z,69.18
2023-01-09T17:35:16.627Z,69.44
2023-01-09T17:37:44.399Z,69.63
2023-01-09T17:40:25.990Z,69.21
2023-01-09T17:42:56.623Z,69.05
2023-01-09T17:45:24.066Z,71.17
2023-01-09T17:51:00.158Z,68.64
2023-01-09T17:53:30.423Z,69.02
2023-01-09T17:55:57.942Z,68.97
2023-01-09T17:58:26.887Z,69.86
2023-01-09T18:01:01.931Z,70.60
2023-01-09T18:03:33.943Z,71.34
2023-01-09T18:06:01.507Z,70.55
2023-01-09T18:11:14.561Z,70.86
2023-01-09T18:13:41.991Z,70.82
2023-01-09T18:16:12.718Z,70.45
2023-01-09T18:18:40.712Z,69.91
2023-01-09T18:21:12.479Z,70.12
2023-01-09T18:23:39.627Z,70.72
2023-01-09T18:26:10.979Z,71.03
2023-01-09T18:28:39.285Z,70.77
2023-01-09T18:31:07.139Z,70.80
2023-01-09T18:33:34.681Z,70.87
2023-01-09T18:36:10.251Z,70.85
2023-01-09T18:38:37.901Z,71.50
2023-01-09T18:41:07.406Z,71.34
2023-01-09T18:43:34.862Z,71.27
2023-01-09T18:46:08.240Z,71.00
2023-01-09T18:48:35.166Z,70.51
2023-01-09T18:51:02.928Z,70.99
2023-01-09T18:53:29.949Z,71.15
2023-01-09T18:55:56.764Z,71.25
2023-01-09T18:58:23.672Z,71.37
2023-01-09T19:00:51.776Z,71.65
2023-01-09T19:03:18.770Z,71.90
2023-01-09T19:05:45.592Z,72.30
2023-01-09T19:08:13.608Z,72.14
2023-01-09T19:10:40.457Z,72.02
2023-01-09T19:13:07.300Z,71.93
2023-01-09T19:15:35.066Z,72.11
2023-01-09T19:18:01.865Z,73.28
2023-01-09T19:20:29.948Z,72.71
2023-01-09T19:22:57.184Z,72.07
2023-01-09T19:25:24.110Z,72.96
2023-01-09T19:27:51.030Z,72.74
2023-01-09T19:30:18.798Z,71.78
2023-01-09T19:32:45.568Z,72.23
2023-01-09T19:35:12.507Z,72.38
2023-01-09T19:37:39.342Z,72.24
2023-01-09T19:40:06.577Z,72.05
2023-01-09T19:42:33.364Z,72.30
2023-01-09T19:45:00.180Z,72.53
2023-01-09T19:47:26.970Z,72.25
2023-01-09T19:49:53.828Z,72.32
2023-01-09T19:52:20.666Z,72.38
2023-01-09T19:54:48.007Z,73.43
2023-01-09T19:57:14.801Z,73.20
2023-01-09T19:59:43.595Z,72.67
2023-01-09T20:02:11.525Z,73.10
2023-01-09T20:04:38.420Z,73.04
2023-01-09T20:07:05.454Z,74.16
2023-01-09T20:09:34.168Z,74.16
2023-01-09T20:12:02.267Z,74.27
2023-01-09T20:14:30.008Z,75.33
2023-01-09T20:17:01.107Z,75.25
2023-01-09T20:19:30.302Z,75.25
2023-01-09T20:21:57.074Z,75.45
2023-01-09T20:24:23.828Z,75.43
2023-01-09T20:26:51.409Z,75.17
2023-01-09T20:29:18.441Z,75.23
2023-01-09T20:31:45.403Z,75.16
2023-01-09T20:34:13.276Z,74.71
2023-01-09T20:36:40.207Z,74.71
2023-01-09T20:39:08.059Z,75.29
2023-01-09T20:41:34.927Z,75.87
2023-01-09T20:44:03.117Z,75.83
2023-01-09T20:46:30.951Z,76.71
2023-01-09T20:48:58.612Z,77.75
2023-01-09T20:51:25.827Z,79.22
2023-01-09T20:53:56.019Z,77.98
2023-01-09T20:56:23.824Z,76.87
2023-01-09T20:58:50.717Z,76.83
2023-01-09T21:01:17.707Z,77.30
2023-01-09T21:03:44.616Z,76.91
2023-01-09T21:06:12.905Z,77.04
2023-01-09T21:08:40.386Z,77.01
2023-01-09T21:11:07.143Z,76.11
2023-01-09T21:13:33.891Z,76.97
2023-01-09T21:16:02.719Z,77.25
2023-01-09T21:18:31.138Z,75.66
2023-01-09T21:20:58.105Z,78.22
2023-01-09T21:23:24.928Z,78.78
2023-01-09T21:25:51.713Z,77.33
2023-01-09T21:28:19.707Z,78.94
2023-01-09T21:30:49.908Z,78.77
2023-01-09T21:33:20.803Z,79.46
2023-01-09T21:35:56.536Z,79.93
2023-01-09T21:38:24.006Z,79.49
2023-01-09T21:40:51.701Z,77.41
2023-01-09T21:43:36.518Z,78.32
2023-01-09T21:46:13.388Z,78.56
2023-01-09T21:48:40.201Z,79.22
2023-01-09T21:51:07.437Z,80.42
2023-01-09T21:53:34.221Z,80.60
2023-01-09T21:56:02.716Z,80.38
2023-01-09T21:58:29.487Z,80.85
2023-01-09T22:00:57.297Z,80.79
2023-01-09T22:03:24.142Z,79.65
2023-01-09T22:05:50.923Z,78.61
2023-01-09T22:08:17.673Z,78.64
2023-01-09T22:10:44.438Z,77.62
2023-01-09T22:13:16.349Z,78.04
2023-01-09T22:15:45.167Z,78.06
2023-01-09T22:18:11.990Z,78.98
2023-01-09T22:20:38.771Z,77.96
2023-01-09T22:23:05.481Z,77.81
2023-01-09T22:25:32.327Z,78.01
2023-01-09T22:27:59.113Z,77.98
2023-01-09T22:30:25.910Z,77.78
2023-01-09T22:32:52.671Z,78.03
2023-01-09T22:35:19.442Z,78.82
2023-01-09T22:37:46.364Z,79.86
2023-01-09T22:40:13.463Z,78.24
2023-01-09T22:42:40.227Z,78.33
2023-01-09T22:45:07.726Z,78.45
2023-01-09T22:47:34.482Z,79.05
2023-01-09T22:50:01.545Z,79.52
2023-01-09T22:52:29.337Z,78.47
2023-01-09T22:54:56.175Z,78.74
2023-01-09T22:57:22.943Z,79.35
2023-01-09T22:59:52.821Z,78.58
2023-01-09T23:02:19.727Z,78.57
2023-01-09T23:04:46.559Z,79.32
2023-01-09T23:07:13.663Z,78.95
2023-01-09T23:09:40.534Z,78.45
2023-01-09T23:12:07.988Z,79.53
2023-01-09T23:14:36.772Z,79.24
2023-01-09T23:17:04.412Z,79.37
2023-01-09T23:19:32.775Z,79.19
2023-01-09T23:22:00.089Z,78.02
2023-01-09T23:24:27.701Z,77.35
2023-01-09T23:26:55.246Z,77.53
2023-01-09T23:29:22.369Z,77.20
2023-01-09T23:31:49.148Z,77.61
2023-01-09T23:34:17.201Z,77.23
2023-01-09T23:36:44.724Z,76.96
2023-01-09T23:39:11.565Z,76.66
2023-01-09T23:41:47.583Z,76.95
2023-01-09T23:44:14.343Z,77.04
2023-01-09T23:46:41.173Z,77.69
2023-01-09T23:49:08.348Z,77.64
2023-01-09T23:51:35.177Z,78.02
2023-01-09T23:54:01.933Z,79.06
2023-01-09T23:56:30.883Z,78.88
2023-01-09T23:58:58.133Z,78.08
